Ferrelview, Missouri
Current Conditions -  °F | °C
As of 12:53 PM on Monday 20 Oct 2014 (Local Time) from KMCI Reporting Station
Clear Clear  
Wind Chill: 70°   Ceiling: Unl
Heat Index: 70°   Visibility: 10mi
Dew Point: 47°   Wind: 6mph
Humidity: 44%   Direction: 30°NNE
Pressure: 30.07"   Gusts: NA
Location:  39.3419°N, 94.7209°W
Report Text: KMCI 201753Z 03005KT 10SM CLR 21/08 A3007 RMK AO2 SLP177 T02110083 10211 20100 50001
Loading
Personal Weather Stations






























Interactive Weather Map
Tropical Storm Tracking
New forecast layout! Learn more

10-Day Weather Forecast

Advertisements
Track Severe Weather on mobile